sensor_id;sensor_type;location;lat;lon;timestamp;pressure;altitude;pressure_sealevel;temperature;humidity
25638;BME280;13496;51.040;13.680;2023-05-23T00:01:25;99342.72;;;25.89;45.28
25638;BME280;13496;51.040;13.680;2023-05-23T00:06:26;99344.81;;;25.87;43.49
25638;BME280;13496;51.040;13.680;2023-05-23T00:11:28;99342.41;;;25.85;43.18
25638;BME280;13496;51.040;13.680;2023-05-23T00:16:30;99345.28;;;25.83;45.64
25638;BME280;13496;51.040;13.680;2023-05-23T00:21:33;99356.97;;;25.82;45.49
25638;BME280;13496;51.040;13.680;2023-05-23T00:26:35;99367.28;;;25.79;43.73
25638;BME280;13496;51.040;13.680;2023-05-23T00:31:37;99373.63;;;25.78;44.92
25638;BME280;13496;51.040;13.680;2023-05-23T00:36:39;99379.19;;;25.76;45.63
25638;BME280;13496;51.040;13.680;2023-05-23T00:41:42;99388.22;;;25.75;45.96
25638;BME280;13496;51.040;13.680;2023-05-23T00:46:46;99376.19;;;25.73;45.43
25638;BME280;13496;51.040;13.680;2023-05-23T00:51:50;99370.34;;;25.71;46.03
25638;BME280;13496;51.040;13.680;2023-05-23T00:56:52;99362.59;;;25.69;45.91
25638;BME280;13496;51.040;13.680;2023-05-23T01:01:55;99357.53;;;25.68;46.00
25638;BME280;13496;51.040;13.680;2023-05-23T01:06:57;99350.06;;;25.65;46.04
25638;BME280;13496;51.040;13.680;2023-05-23T01:12:16;99358.03;;;25.65;46.39
25638;BME280;13496;51.040;13.680;2023-05-23T01:17:38;99361.97;;;25.62;46.53
25638;BME280;13496;51.040;13.680;2023-05-23T01:28:04;99370.66;;;25.57;45.31
25638;BME280;13496;51.040;13.680;2023-05-23T01:33:07;99371.72;;;25.56;46.10
25638;BME280;13496;51.040;13.680;2023-05-23T01:38:09;99370.34;;;25.54;45.83
25638;BME280;13496;51.040;13.680;2023-05-23T01:43:12;99365.28;;;25.52;45.76
25638;BME280;13496;51.040;13.680;2023-05-23T01:48:14;99365.53;;;25.51;45.82
25638;BME280;13496;51.040;13.680;2023-05-23T01:53:19;99363.13;;;25.49;45.77
25638;BME280;13496;51.040;13.680;2023-05-23T01:58:21;99367.06;;;25.47;45.99
25638;BME280;13496;51.040;13.680;2023-05-23T02:03:23;99368.91;;;25.46;46.55
25638;BME280;13496;51.040;13.680;2023-05-23T02:08:25;99367.53;;;25.44;46.35
25638;BME280;13496;51.040;13.680;2023-05-23T02:13:27;99353.13;;;25.40;46.31
25638;BME280;13496;51.040;13.680;2023-05-23T02:18:28;99341.72;;;25.39;45.53
25638;BME280;13496;51.040;13.680;2023-05-23T02:23:30;99335.84;;;25.37;45.76
25638;BME280;13496;51.040;13.680;2023-05-23T02:28:32;99320.94;;;25.36;46.49
25638;BME280;13496;51.040;13.680;2023-05-23T02:33:33;99320.41;;;25.34;46.61
25638;BME280;13496;51.040;13.680;2023-05-23T02:38:35;99304.69;;;25.32;45.34
25638;BME280;13496;51.040;13.680;2023-05-23T02:43:37;99303.34;;;25.30;45.79
25638;BME280;13496;51.040;13.680;2023-05-23T02:48:40;99309.72;;;25.29;45.73
25638;BME280;13496;51.040;13.680;2023-05-23T02:53:42;99293.22;;;25.27;46.25
25638;BME280;13496;51.040;13.680;2023-05-23T02:58:43;99284.44;;;25.26;46.04
25638;BME280;13496;51.040;13.680;2023-05-23T03:03:45;99280.41;;;25.24;46.06
25638;BME280;13496;51.040;13.680;2023-05-23T03:08:47;99266.59;;;25.22;45.70
25638;BME280;13496;51.040;13.680;2023-05-23T03:13:49;99261.28;;;25.22;45.51
25638;BME280;13496;51.040;13.680;2023-05-23T03:18:51;99265.22;;;25.19;46.04
25638;BME280;13496;51.040;13.680;2023-05-23T03:23:53;99272.13;;;25.20;45.92
25638;BME280;13496;51.040;13.680;2023-05-23T03:28:54;99266.50;;;25.17;46.03
25638;BME280;13496;51.040;13.680;2023-05-23T03:33:56;99267.28;;;25.17;46.02
25638;BME280;13496;51.040;13.680;2023-05-23T03:38:58;99260.13;;;25.18;45.60
25638;BME280;13496;51.040;13.680;2023-05-23T03:44:00;99261.19;;;25.17;45.57
25638;BME280;13496;51.040;13.680;2023-05-23T03:49:02;99255.88;;;25.17;45.88
25638;BME280;13496;51.040;13.680;2023-05-23T03:54:04;99261.97;;;25.17;45.85
25638;BME280;13496;51.040;13.680;2023-05-23T03:59:06;99272.59;;;25.17;46.04
25638;BME280;13496;51.040;13.680;2023-05-23T04:04:07;99280.03;;;25.15;45.79
25638;BME280;13496;51.040;13.680;2023-05-23T04:09:12;99296.75;;;25.16;45.86
25638;BME280;13496;51.040;13.680;2023-05-23T04:14:18;99301.00;;;25.17;45.27
25638;BME280;13496;51.040;13.680;2023-05-23T04:19:23;99298.34;;;25.17;45.98
25638;BME280;13496;51.040;13.680;2023-05-23T04:24:27;99298.34;;;25.17;45.64
25638;BME280;13496;51.040;13.680;2023-05-23T04:29:28;99301.59;;;25.19;44.96
25638;BME280;13496;51.040;13.680;2023-05-23T04:34:32;99314.28;;;25.17;45.22
25638;BME280;13496;51.040;13.680;2023-05-23T04:39:34;99314.88;;;25.19;45.10
25638;BME280;13496;51.040;13.680;2023-05-23T04:44:55;99323.84;;;25.18;45.40
25638;BME280;13496;51.040;13.680;2023-05-23T04:50:18;99318.78;;;25.16;45.19
25638;BME280;13496;51.040;13.680;2023-05-23T04:55:22;99318.25;;;25.14;45.17
25638;BME280;13496;51.040;13.680;2023-05-23T05:00:24;99313.47;;;25.16;45.37
25638;BME280;13496;51.040;13.680;2023-05-23T05:05:26;99311.16;;;25.20;45.21
25638;BME280;13496;51.040;13.680;2023-05-23T05:10:28;99318.53;;;25.18;45.46
25638;BME280;13496;51.040;13.680;2023-05-23T05:15:30;99331.34;;;25.21;45.07
25638;BME280;13496;51.040;13.680;2023-05-23T05:20:33;99327.66;;;25.22;44.91
25638;BME280;13496;51.040;13.680;2023-05-23T05:25:36;99329.00;;;25.24;44.73
25638;BME280;13496;51.040;13.680;2023-05-23T05:30:39;99332.97;;;25.22;45.63
25638;BME280;13496;51.040;13.680;2023-05-23T05:35:41;99339.41;;;25.26;44.84
25638;BME280;13496;51.040;13.680;2023-05-23T05:40:43;99328.78;;;25.26;45.06
25638;BME280;13496;51.040;13.680;2023-05-23T05:45:45;99330.06;;;25.23;44.82
25638;BME280;13496;51.040;13.680;2023-05-23T05:50:47;99332.47;;;25.25;45.08
25638;BME280;13496;51.040;13.680;2023-05-23T05:55:49;99343.66;;;25.27;45.13
25638;BME280;13496;51.040;13.680;2023-05-23T06:00:51;99336.34;;;25.34;44.85
25638;BME280;13496;51.040;13.680;2023-05-23T06:05:56;99351.00;;;25.37;44.71
25638;BME280;13496;51.040;13.680;2023-05-23T06:10:58;99359.19;;;25.35;44.78
25638;BME280;13496;51.040;13.680;2023-05-23T06:16:01;99348.00;;;25.33;44.94
25638;BME280;13496;51.040;13.680;2023-05-23T06:21:03;99351.63;;;25.27;44.48
25638;BME280;13496;51.040;13.680;2023-05-23T06:26:07;99366.28;;;25.29;44.76
25638;BME280;13496;51.040;13.680;2023-05-23T06:31:11;99361.28;;;25.33;45.09
25638;BME280;13496;51.040;13.680;2023-05-23T06:36:13;99366.81;;;25.31;44.61
25638;BME280;13496;51.040;13.680;2023-05-23T06:41:14;99361.78;;;25.30;44.67
25638;BME280;13496;51.040;13.680;2023-05-23T06:46:16;99367.72;;;25.37;44.23
25638;BME280;13496;51.040;13.680;2023-05-23T06:51:18;99369.81;;;25.35;44.24
25638;BME280;13496;51.040;13.680;2023-05-23T06:56:20;99377.03;;;25.40;44.39
25638;BME280;13496;51.040;13.680;2023-05-23T07:01:31;99374.97;;;25.42;44.20
25638;BME280;13496;51.040;13.680;2023-05-23T07:06:33;99379.22;;;25.43;44.44
25638;BME280;13496;51.040;13.680;2023-05-23T07:11:36;99374.97;;;25.42;43.66
25638;BME280;13496;51.040;13.680;2023-05-23T07:16:40;99375.44;;;25.39;44.21
25638;BME280;13496;51.040;13.680;2023-05-23T07:21:43;99385.66;;;25.47;43.73
25638;BME280;13496;51.040;13.680;2023-05-23T07:26:46;99383.19;;;25.40;44.28
25638;BME280;13496;51.040;13.680;2023-05-23T07:31:49;99389.38;;;25.46;43.40
25638;BME280;13496;51.040;13.680;2023-05-23T07:36:51;99390.91;;;25.42;44.11
25638;BME280;13496;51.040;13.680;2023-05-23T07:41:55;99388.25;;;25.42;43.93
25638;BME280;13496;51.040;13.680;2023-05-23T07:46:57;99379.94;;;25.38;44.29
25638;BME280;13496;51.040;13.680;2023-05-23T07:52:00;99383.66;;;25.37;44.69
25638;BME280;13496;51.040;13.680;2023-05-23T07:57:02;99386.97;;;25.44;44.44
25638;BME280;13496;51.040;13.680;2023-05-23T08:02:04;99380.66;;;25.50;44.05
25638;BME280;13496;51.040;13.680;2023-05-23T08:07:06;99395.06;;;25.54;44.15
25638;BME280;13496;51.040;13.680;2023-05-23T08:12:35;99396.13;;;25.53;44.14
25638;BME280;13496;51.040;13.680;2023-05-23T08:17:49;99392.56;;;25.65;43.68
25638;BME280;13496;51.040;13.680;2023-05-23T08:22:52;99391.44;;;25.61;44.24
25638;BME280;13496;51.040;13.680;2023-05-23T08:27:59;99397.66;;;25.66;43.89
25638;BME280;13496;51.040;13.680;2023-05-23T08:33:22;99408.28;;;25.66;44.10
25638;BME280;13496;51.040;13.680;2023-05-23T08:38:32;99413.34;;;25.68;43.99
25638;BME280;13496;51.040;13.680;2023-05-23T08:43:42;99414.53;;;25.77;44.00
25638;BME280;13496;51.040;13.680;2023-05-23T08:48:52;99419.72;;;25.67;43.95
25638;BME280;13496;51.040;13.680;2023-05-23T08:53:55;99424.06;;;25.56;44.30
25638;BME280;13496;51.040;13.680;2023-05-23T08:59:00;99429.13;;;25.57;44.17
25638;BME280;13496;51.040;13.680;2023-05-23T09:04:04;99431.16;;;25.67;44.26
25638;BME280;13496;51.040;13.680;2023-05-23T09:09:23;99433.00;;;25.67;44.34
25638;BME280;13496;51.040;13.680;2023-05-23T09:14:26;99439.84;;;25.63;44.04
25638;BME280;13496;51.040;13.680;2023-05-23T09:19:32;99439.53;;;25.59;44.40
25638;BME280;13496;51.040;13.680;2023-05-23T09:24:45;99449.31;;;25.58;44.38
25638;BME280;13496;51.040;13.680;2023-05-23T09:29:48;99453.91;;;25.46;44.60
25638;BME280;13496;51.040;13.680;2023-05-23T09:34:58;99460.28;;;25.45;44.30
25638;BME280;13496;51.040;13.680;2023-05-23T09:40:04;99467.31;;;25.51;44.30
25638;BME280;13496;51.040;13.680;2023-05-23T09:45:07;99472.69;;;25.56;44.42
25638;BME280;13496;51.040;13.680;2023-05-23T09:50:11;99462.38;;;25.60;44.05
25638;BME280;13496;51.040;13.680;2023-05-23T09:55:13;99466.56;;;25.56;44.05
25638;BME280;13496;51.040;13.680;2023-05-23T10:00:15;99486.38;;;25.48;44.18
25638;BME280;13496;51.040;13.680;2023-05-23T10:16:11;99495.25;;;25.71;43.90
25638;BME280;13496;51.040;13.680;2023-05-23T10:21:18;99491.84;;;25.75;43.38
25638;BME280;13496;51.040;13.680;2023-05-23T10:26:21;99492.44;;;25.94;43.21
25638;BME280;13496;51.040;13.680;2023-05-23T10:31:23;99496.16;;;25.93;43.03
25638;BME280;13496;51.040;13.680;2023-05-23T10:36:31;99495.09;;;25.94;43.30
25638;BME280;13496;51.040;13.680;2023-05-23T10:41:44;99494.47;;;25.87;43.25
25638;BME280;13496;51.040;13.680;2023-05-23T10:46:56;99510.09;;;25.83;43.51
25638;BME280;13496;51.040;13.680;2023-05-23T10:51:59;99503.81;;;25.90;43.31
25638;BME280;13496;51.040;13.680;2023-05-23T10:57:04;99507.28;;;26.07;42.94
25638;BME280;13496;51.040;13.680;2023-05-23T11:02:18;99513.47;;;25.96;42.81
25638;BME280;13496;51.040;13.680;2023-05-23T11:07:31;99513.56;;;26.01;42.65
25638;BME280;13496;51.040;13.680;2023-05-23T11:12:43;99512.34;;;26.09;42.63
25638;BME280;13496;51.040;13.680;2023-05-23T11:17:56;99517.31;;;26.22;42.76
25638;BME280;13496;51.040;13.680;2023-05-23T11:22:59;99513.44;;;26.13;42.85
25638;BME280;13496;51.040;13.680;2023-05-23T11:28:03;99524.44;;;25.99;42.80
25638;BME280;13496;51.040;13.680;2023-05-23T11:33:15;99518.44;;;26.09;42.88
25638;BME280;13496;51.040;13.680;2023-05-23T11:38:18;99522.72;;;26.10;43.07
25638;BME280;13496;51.040;13.680;2023-05-23T11:43:20;99521.91;;;26.10;42.78
25638;BME280;13496;51.040;13.680;2023-05-23T11:48:22;99510.00;;;26.12;42.86
25638;BME280;13496;51.040;13.680;2023-05-23T11:53:26;99506.63;;;26.39;42.59
25638;BME280;13496;51.040;13.680;2023-05-23T11:58:33;99507.59;;;26.49;42.11
25638;BME280;13496;51.040;13.680;2023-05-23T12:03:49;99511.75;;;26.62;42.11
25638;BME280;13496;51.040;13.680;2023-05-23T12:08:51;99505.94;;;26.87;42.07
25638;BME280;13496;51.040;13.680;2023-05-23T12:13:53;99510.91;;;26.78;41.83
25638;BME280;13496;51.040;13.680;2023-05-23T12:18:55;99505.44;;;26.68;41.95
25638;BME280;13496;51.040;13.680;2023-05-23T12:23:56;99508.28;;;26.62;41.64
25638;BME280;13496;51.040;13.680;2023-05-23T12:28:58;99505.22;;;26.48;42.33
25638;BME280;13496;51.040;13.680;2023-05-23T12:34:00;99516.47;;;26.38;42.33
25638;BME280;13496;51.040;13.680;2023-05-23T12:39:03;99524.00;;;26.24;42.48
25638;BME280;13496;51.040;13.680;2023-05-23T12:44:05;99525.53;;;26.20;42.52
25638;BME280;13496;51.040;13.680;2023-05-23T12:49:16;99526.22;;;26.11;42.37
25638;BME280;13496;51.040;13.680;2023-05-23T12:54:18;99529.41;;;26.13;42.91
25638;BME280;13496;51.040;13.680;2023-05-23T12:59:19;99534.03;;;26.00;42.70
25638;BME280;13496;51.040;13.680;2023-05-23T13:04:21;99537.63;;;25.94;42.78
25638;BME280;13496;51.040;13.680;2023-05-23T13:09:23;99540.53;;;25.93;42.88
25638;BME280;13496;51.040;13.680;2023-05-23T13:14:25;99539.09;;;25.85;43.18
25638;BME280;13496;51.040;13.680;2023-05-23T13:19:26;99546.06;;;25.74;42.97
25638;BME280;13496;51.040;13.680;2023-05-23T13:24:29;99556.44;;;25.76;43.02
25638;BME280;13496;51.040;13.680;2023-05-23T13:29:31;99558.03;;;25.77;43.40
25638;BME280;13496;51.040;13.680;2023-05-23T13:34:32;99555.06;;;25.73;43.23
25638;BME280;13496;51.040;13.680;2023-05-23T13:39:37;99559.47;;;25.79;43.21
25638;BME280;13496;51.040;13.680;2023-05-23T13:44:39;99567.44;;;25.79;43.26
25638;BME280;13496;51.040;13.680;2023-05-23T13:49:41;99574.13;;;25.82;43.41
25638;BME280;13496;51.040;13.680;2023-05-23T13:54:43;99584.97;;;25.80;43.08
25638;BME280;13496;51.040;13.680;2023-05-23T13:59:45;99576.22;;;25.80;43.20
25638;BME280;13496;51.040;13.680;2023-05-23T14:04:47;99575.25;;;25.86;42.93
25638;BME280;13496;51.040;13.680;2023-05-23T14:09:51;99575.72;;;25.83;43.06
25638;BME280;13496;51.040;13.680;2023-05-23T14:14:53;99579.13;;;25.78;43.39
25638;BME280;13496;51.040;13.680;2023-05-23T14:19:55;99578.56;;;25.65;43.09
25638;BME280;13496;51.040;13.680;2023-05-23T14:24:57;99587.03;;;25.62;42.93
25638;BME280;13496;51.040;13.680;2023-05-23T14:29:59;99594.91;;;25.56;42.96
25638;BME280;13496;51.040;13.680;2023-05-23T14:35:01;99594.44;;;25.59;43.37
25638;BME280;13496;51.040;13.680;2023-05-23T14:40:06;99595.97;;;25.55;43.26
25638;BME280;13496;51.040;13.680;2023-05-23T14:45:10;99599.63;;;25.54;43.11
25638;BME280;13496;51.040;13.680;2023-05-23T14:50:12;99604.41;;;25.52;43.27
25638;BME280;13496;51.040;13.680;2023-05-23T14:55:14;99615.03;;;25.52;43.21
25638;BME280;13496;51.040;13.680;2023-05-23T15:00:17;99610.06;;;25.56;43.35
25638;BME280;13496;51.040;13.680;2023-05-23T15:05:20;99605.06;;;25.59;43.03
25638;BME280;13496;51.040;13.680;2023-05-23T15:10:21;99618.03;;;25.56;43.34
25638;BME280;13496;51.040;13.680;2023-05-23T15:15:23;99617.72;;;25.41;43.19
25638;BME280;13496;51.040;13.680;2023-05-23T15:20:27;99622.13;;;25.35;43.06
25638;BME280;13496;51.040;13.680;2023-05-23T15:25:29;99621.41;;;25.40;43.37
25638;BME280;13496;51.040;13.680;2023-05-23T15:30:31;99627.19;;;25.48;43.03
25638;BME280;13496;51.040;13.680;2023-05-23T15:35:33;99624.31;;;25.38;43.12
25638;BME280;13496;51.040;13.680;2023-05-23T15:40:35;99638.44;;;25.27;42.97
25638;BME280;13496;51.040;13.680;2023-05-23T15:45:37;99626.78;;;25.16;43.27
25638;BME280;13496;51.040;13.680;2023-05-23T15:50:38;99633.16;;;25.15;43.79
25638;BME280;13496;51.040;13.680;2023-05-23T15:55:40;99638.81;;;25.07;43.34
25638;BME280;13496;51.040;13.680;2023-05-23T16:00:42;99646.09;;;25.12;42.53
25638;BME280;13496;51.040;13.680;2023-05-23T16:05:44;99646.19;;;25.05;43.63
25638;BME280;13496;51.040;13.680;2023-05-23T16:10:45;99646.66;;;25.02;43.54
25638;BME280;13496;51.040;13.680;2023-05-23T16:15:47;99654.72;;;24.95;43.67
25638;BME280;13496;51.040;13.680;2023-05-23T16:20:49;99657.06;;;25.03;43.86
25638;BME280;13496;51.040;13.680;2023-05-23T16:25:56;99655.31;;;24.97;44.79
25638;BME280;13496;51.040;13.680;2023-05-23T16:30:58;99657.63;;;24.94;43.83
25638;BME280;13496;51.040;13.680;2023-05-23T16:36:00;99649.41;;;24.95;44.03
25638;BME280;13496;51.040;13.680;2023-05-23T16:41:02;99658.88;;;25.03;44.74
25638;BME280;13496;51.040;13.680;2023-05-23T16:46:04;99652.56;;;24.92;44.28
25638;BME280;13496;51.040;13.680;2023-05-23T16:51:06;99663.72;;;24.94;44.39
25638;BME280;13496;51.040;13.680;2023-05-23T16:56:08;99656.91;;;24.98;44.89
25638;BME280;13496;51.040;13.680;2023-05-23T17:01:09;99669.50;;;24.91;45.21
25638;BME280;13496;51.040;13.680;2023-05-23T17:06:11;99663.63;;;24.89;45.61
25638;BME280;13496;51.040;13.680;2023-05-23T17:11:13;99676.66;;;24.79;44.11
25638;BME280;13496;51.040;13.680;2023-05-23T17:16:15;99678.16;;;24.75;44.43
25638;BME280;13496;51.040;13.680;2023-05-23T17:21:18;99685.69;;;24.78;45.44
25638;BME280;13496;51.040;13.680;2023-05-23T17:26:20;99694.44;;;24.78;45.47
25638;BME280;13496;51.040;13.680;2023-05-23T17:31:22;99694.09;;;24.75;45.51
25638;BME280;13496;51.040;13.680;2023-05-23T17:36:24;99704.91;;;24.73;45.51
25638;BME280;13496;51.040;13.680;2023-05-23T17:41:26;99722.69;;;24.73;45.52
25638;BME280;13496;51.040;13.680;2023-05-23T17:46:28;99730.66;;;24.73;45.67
25638;BME280;13496;51.040;13.680;2023-05-23T17:51:32;99736.19;;;24.71;45.50
25638;BME280;13496;51.040;13.680;2023-05-23T17:56:34;99748.06;;;24.69;45.48
25638;BME280;13496;51.040;13.680;2023-05-23T18:01:37;99747.72;;;24.65;45.76
25638;BME280;13496;51.040;13.680;2023-05-23T18:06:39;99749.00;;;24.62;45.67
25638;BME280;13496;51.040;13.680;2023-05-23T18:11:41;99747.84;;;24.58;45.58
25638;BME280;13496;51.040;13.680;2023-05-23T18:16:43;99765.47;;;24.53;45.79
25638;BME280;13496;51.040;13.680;2023-05-23T18:21:45;99758.75;;;24.50;45.08
25638;BME280;13496;51.040;13.680;2023-05-23T18:26:47;99768.22;;;24.46;45.42
25638;BME280;13496;51.040;13.680;2023-05-23T18:31:48;99781.72;;;24.45;45.73
25638;BME280;13496;51.040;13.680;2023-05-23T18:36:50;99784.00;;;24.41;45.75
25638;BME280;13496;51.040;13.680;2023-05-23T18:41:52;99799.16;;;24.34;45.25
25638;BME280;13496;51.040;13.680;2023-05-23T18:46:54;99808.72;;;24.35;45.69
25638;BME280;13496;51.040;13.680;2023-05-23T18:51:57;99817.13;;;24.32;45.68
25638;BME280;13496;51.040;13.680;2023-05-23T18:56:59;99810.66;;;24.28;45.69
25638;BME280;13496;51.040;13.680;2023-05-23T19:02:01;99840.25;;;24.25;45.75
25638;BME280;13496;51.040;13.680;2023-05-23T19:07:03;99843.03;;;24.18;45.70
25638;BME280;13496;51.040;13.680;2023-05-23T19:12:05;99859.13;;;24.17;45.11
25638;BME280;13496;51.040;13.680;2023-05-23T19:22:09;99861.50;;;24.06;45.46
25638;BME280;13496;51.040;13.680;2023-05-23T19:27:11;99878.44;;;24.05;45.62
25638;BME280;13496;51.040;13.680;2023-05-23T19:32:14;99884.78;;;24.04;45.64
25638;BME280;13496;51.040;13.680;2023-05-23T19:37:16;99894.19;;;24.00;45.50
25638;BME280;13496;51.040;13.680;2023-05-23T19:42:18;99901.56;;;23.98;45.69
25638;BME280;13496;51.040;13.680;2023-05-23T19:47:20;99904.44;;;23.97;45.71
25638;BME280;13496;51.040;13.680;2023-05-23T19:52:22;99922.19;;;23.96;45.45
25638;BME280;13496;51.040;13.680;2023-05-23T19:57:24;99928.34;;;23.90;44.92
25638;BME280;13496;51.040;13.680;2023-05-23T20:02:26;99936.53;;;23.88;45.49
25638;BME280;13496;51.040;13.680;2023-05-23T20:07:28;99929.81;;;23.86;45.64
25638;BME280;13496;51.040;13.680;2023-05-23T20:12:30;99940.66;;;23.84;45.39
25638;BME280;13496;51.040;13.680;2023-05-23T20:17:33;99942.47;;;23.84;45.51
25638;BME280;13496;51.040;13.680;2023-05-23T20:22:35;99946.16;;;23.83;45.75
25638;BME280;13496;51.040;13.680;2023-05-23T20:27:37;99946.94;;;23.83;45.56
25638;BME280;13496;51.040;13.680;2023-05-23T20:32:39;99956.75;;;23.83;45.81
25638;BME280;13496;51.040;13.680;2023-05-23T20:37:43;99957.16;;;23.80;45.56
25638;BME280;13496;51.040;13.680;2023-05-23T20:42:45;99969.84;;;23.78;45.26
25638;BME280;13496;51.040;13.680;2023-05-23T20:47:47;99964.16;;;23.74;46.05
25638;BME280;13496;51.040;13.680;2023-05-23T20:52:48;99980.06;;;23.74;45.77
25638;BME280;13496;51.040;13.680;2023-05-23T20:57:50;99987.22;;;23.74;45.62
25638;BME280;13496;51.040;13.680;2023-05-23T21:02:52;99988.22;;;23.73;45.63
25638;BME280;13496;51.040;13.680;2023-05-23T21:07:54;99984.97;;;23.71;46.00
25638;BME280;13496;51.040;13.680;2023-05-23T21:12:56;99995.78;;;23.69;45.92
25638;BME280;13496;51.040;13.680;2023-05-23T21:17:58;99994.16;;;23.68;45.80
25638;BME280;13496;51.040;13.680;2023-05-23T21:22:59;99998.84;;;23.66;45.84
25638;BME280;13496;51.040;13.680;2023-05-23T21:28:01;99996.41;;;23.64;46.03
25638;BME280;13496;51.040;13.680;2023-05-23T21:33:03;99989.50;;;23.63;45.71
25638;BME280;13496;51.040;13.680;2023-05-23T21:38:04;100006.63;;;23.61;46.03
25638;BME280;13496;51.040;13.680;2023-05-23T21:43:06;99999.47;;;23.61;46.14
25638;BME280;13496;51.040;13.680;2023-05-23T21:48:08;100002.56;;;23.58;46.05
25638;BME280;13496;51.040;13.680;2023-05-23T21:53:10;100004.63;;;23.56;46.09
25638;BME280;13496;51.040;13.680;2023-05-23T21:58:11;100011.94;;;23.54;46.18
25638;BME280;13496;51.040;13.680;2023-05-23T22:03:13;100006.66;;;23.54;46.04
25638;BME280;13496;51.040;13.680;2023-05-23T22:08:15;100016.66;;;23.52;46.23
25638;BME280;13496;51.040;13.680;2023-05-23T22:13:16;100013.41;;;23.50;46.31
25638;BME280;13496;51.040;13.680;2023-05-23T22:18:18;100024.63;;;23.52;46.24
25638;BME280;13496;51.040;13.680;2023-05-23T22:23:20;100019.13;;;23.47;46.21
25638;BME280;13496;51.040;13.680;2023-05-23T22:28:21;100016.47;;;23.47;46.36
25638;BME280;13496;51.040;13.680;2023-05-23T22:33:23;100020.59;;;23.43;46.40
25638;BME280;13496;51.040;13.680;2023-05-23T22:38:25;100025.69;;;23.45;46.43
25638;BME280;13496;51.040;13.680;2023-05-23T22:43:26;100020.59;;;23.43;46.43
25638;BME280;13496;51.040;13.680;2023-05-23T22:48:29;100026.34;;;23.40;46.39
25638;BME280;13496;51.040;13.680;2023-05-23T22:53:34;100019.38;;;23.39;46.23
25638;BME280;13496;51.040;13.680;2023-05-23T22:58:35;100017.16;;;23.36;46.32
25638;BME280;13496;51.040;13.680;2023-05-23T23:03:37;100012.31;;;23.33;46.34
25638;BME280;13496;51.040;13.680;2023-05-23T23:08:39;100013.31;;;23.32;46.26
25638;BME280;13496;51.040;13.680;2023-05-23T23:13:40;100010.09;;;23.30;46.17
25638;BME280;13496;51.040;13.680;2023-05-23T23:18:42;100009.69;;;23.26;45.93
25638;BME280;13496;51.040;13.680;2023-05-23T23:23:44;100005.63;;;23.24;45.99
25638;BME280;13496;51.040;13.680;2023-05-23T23:28:45;99993.84;;;23.19;45.87
25638;BME280;13496;51.040;13.680;2023-05-23T23:33:47;100002.44;;;23.15;45.20
25638;BME280;13496;51.040;13.680;2023-05-23T23:38:49;99997.94;;;23.15;45.56
25638;BME280;13496;51.040;13.680;2023-05-23T23:43:51;100001.63;;;23.14;45.75
25638;BME280;13496;51.040;13.680;2023-05-23T23:48:53;100007.34;;;23.11;45.71
25638;BME280;13496;51.040;13.680;2023-05-23T23:53:54;100006.53;;;23.11;45.78
25638;BME280;13496;51.040;13.680;2023-05-23T23:58:56;100022.81;;;23.08;45.42
